sensor_id;sensor_type;location;lat;lon;timestamp;temperature;humidity
10968;DHT22;5536;49.602;10.980;2024-03-25T19:28:18;6.70;99.90
10968;DHT22;5536;49.602;10.980;2024-03-25T19:30:51;6.70;99.90
10968;DHT22;5536;49.602;10.980;2024-03-25T19:33:17;6.70;99.90
10968;DHT22;5536;49.602;10.980;2024-03-25T19:35:46;6.50;99.90
10968;DHT22;5536;49.602;10.980;2024-03-25T19:38:12;6.50;99.90
10968;DHT22;5536;49.602;10.980;2024-03-25T19:40:39;6.50;99.90
10968;DHT22;5536;49.602;10.980;2024-03-25T19:43:05;6.50;99.90
10968;DHT22;5536;49.602;10.980;2024-03-25T19:45:32;6.60;99.90
10968;DHT22;5536;49.602;10.980;2024-03-25T19:47:59;6.60;99.90
10968;DHT22;5536;49.602;10.980;2024-03-25T19:50:40;6.50;99.90
10968;DHT22;5536;49.602;10.980;2024-03-25T19:53:06;6.60;99.90
10968;DHT22;5536;49.602;10.980;2024-03-25T19:55:33;6.50;99.90
10968;DHT22;5536;49.602;10.980;2024-03-25T19:57:59;6.50;99.90
10968;DHT22;5536;49.602;10.980;2024-03-25T20:00:25;6.50;99.90
10968;DHT22;5536;49.602;10.980;2024-03-25T20:02:53;6.50;99.90
10968;DHT22;5536;49.602;10.980;2024-03-25T20:05:19;6.50;99.90
10968;DHT22;5536;49.602;10.980;2024-03-25T20:07:45;6.50;99.90
10968;DHT22;5536;49.602;10.980;2024-03-25T20:10:12;6.50;99.90
10968;DHT22;5536;49.602;10.980;2024-03-25T20:12:38;6.40;99.90
10968;DHT22;5536;49.602;10.980;2024-03-25T20:15:05;6.40;99.90
10968;DHT22;5536;49.602;10.980;2024-03-25T20:17:31;6.30;99.90
10968;DHT22;5536;49.602;10.980;2024-03-25T20:19:59;6.30;99.90
10968;DHT22;5536;49.602;10.980;2024-03-25T20:22:25;6.20;99.90
10968;DHT22;5536;49.602;10.980;2024-03-25T20:24:52;6.20;99.90
10968;DHT22;5536;49.602;10.980;2024-03-25T20:27:18;6.10;99.90
10968;DHT22;5536;49.602;10.980;2024-03-25T20:29:44;6.20;99.90
10968;DHT22;5536;49.602;10.980;2024-03-25T20:32:10;6.20;99.90
10968;DHT22;5536;49.602;10.980;2024-03-25T20:34:37;6.10;99.90
10968;DHT22;5536;49.602;10.980;2024-03-25T20:37:05;6.10;99.90
10968;DHT22;5536;49.602;10.980;2024-03-25T20:39:31;6.10;99.90
10968;DHT22;5536;49.602;10.980;2024-03-25T20:41:57;6.00;99.90
10968;DHT22;5536;49.602;10.980;2024-03-25T20:44:23;6.10;99.90
10968;DHT22;5536;49.602;10.980;2024-03-25T20:46:49;6.00;99.90
10968;DHT22;5536;49.602;10.980;2024-03-25T20:49:16;6.00;99.90
10968;DHT22;5536;49.602;10.980;2024-03-25T20:51:42;6.00;99.90
10968;DHT22;5536;49.602;10.980;2024-03-25T20:54:10;5.90;99.90
10968;DHT22;5536;49.602;10.980;2024-03-25T20:56:36;5.80;99.90
10968;DHT22;5536;49.602;10.980;2024-03-25T20:59:02;5.80;99.90
10968;DHT22;5536;49.602;10.980;2024-03-25T21:01:28;5.70;99.90
10968;DHT22;5536;49.602;10.980;2024-03-25T21:03:54;5.70;99.90
10968;DHT22;5536;49.602;10.980;2024-03-25T21:06:21;5.60;99.90
10968;DHT22;5536;49.602;10.980;2024-03-25T21:08:47;5.60;99.90
10968;DHT22;5536;49.602;10.980;2024-03-25T21:11:15;5.70;99.90
10968;DHT22;5536;49.602;10.980;2024-03-25T21:13:41;5.60;99.90
10968;DHT22;5536;49.602;10.980;2024-03-25T21:16:07;5.70;99.90
10968;DHT22;5536;49.602;10.980;2024-03-25T21:18:33;5.60;99.90
10968;DHT22;5536;49.602;10.980;2024-03-25T21:20:59;5.50;99.90
10968;DHT22;5536;49.602;10.980;2024-03-25T21:23:26;5.50;99.90
10968;DHT22;5536;49.602;10.980;2024-03-25T21:25:52;5.50;99.90
10968;DHT22;5536;49.602;10.980;2024-03-25T21:28:20;5.40;99.90
10968;DHT22;5536;49.602;10.980;2024-03-25T21:30:46;5.40;99.90
10968;DHT22;5536;49.602;10.980;2024-03-25T21:33:12;5.40;99.90
10968;DHT22;5536;49.602;10.980;2024-03-25T21:35:38;5.40;99.90
10968;DHT22;5536;49.602;10.980;2024-03-25T21:38:05;5.20;99.90
10968;DHT22;5536;49.602;10.980;2024-03-25T21:40:34;5.30;99.90
10968;DHT22;5536;49.602;10.980;2024-03-25T21:43:00;5.30;99.90
10968;DHT22;5536;49.602;10.980;2024-03-25T21:45:28;5.30;99.90
10968;DHT22;5536;49.602;10.980;2024-03-25T21:47:54;5.20;99.90
10968;DHT22;5536;49.602;10.980;2024-03-25T21:50:20;5.20;99.90
